createdAt,value
2022-12-19T00:00:20.459Z,102413.58
2022-12-19T00:03:12.535Z,102411.02
2022-12-19T00:05:42.858Z,102405.89
2022-12-19T00:08:24.717Z,102401.30
2022-12-19T00:11:01.026Z,102397.66
2022-12-19T00:13:44.883Z,102393.25
2022-12-19T00:16:24.014Z,102385.27
2022-12-19T00:19:00.406Z,102378.27
2022-12-19T00:21:35.092Z,102378.41
2022-12-19T00:24:18.413Z,102376.72
2022-12-19T00:27:01.419Z,102374.73
2022-12-19T00:29:39.182Z,102370.08
2022-12-19T00:32:23.082Z,102362.92
2022-12-19T00:37:49.246Z,102352.08
2022-12-19T00:40:37.016Z,102351.28
2022-12-19T00:43:12.238Z,102347.89
2022-12-19T00:45:43.949Z,102348.11
2022-12-19T00:48:27.188Z,102345.98
2022-12-19T00:51:08.695Z,102344.38
2022-12-19T00:53:39.973Z,102335.63
2022-12-19T00:56:37.076Z,102331.55
2022-12-19T00:59:13.537Z,102333.88
2022-12-19T01:01:51.253Z,102333.95
2022-12-19T01:04:33.374Z,102324.02
2022-12-19T01:07:11.888Z,102318.14
2022-12-19T01:09:51.639Z,102316.19
2022-12-19T01:12:44.048Z,102313.16
2022-12-19T01:15:21.068Z,102309.55
2022-12-19T01:18:04.883Z,102311.63
2022-12-19T01:20:47.519Z,102311.12
2022-12-19T01:23:22.633Z,102305.80
2022-12-19T01:25:57.524Z,102299.23
2022-12-19T01:28:29.377Z,102297.45
2022-12-19T01:31:10.092Z,102298.41
2022-12-19T01:33:53.856Z,102294.11
2022-12-19T01:36:30.714Z,102287.77
2022-12-19T01:39:20.939Z,102281.73
2022-12-19T01:42:05.469Z,102277.92
2022-12-19T01:44:42.741Z,102278.23
2022-12-19T01:47:16.038Z,102277.73
2022-12-19T01:49:59.093Z,102275.91
2022-12-19T01:52:42.689Z,102272.79
2022-12-19T01:55:20.179Z,102268.81
2022-12-19T01:57:57.057Z,102272.92
2022-12-19T02:00:35.426Z,102271.55
2022-12-19T02:03:49.526Z,102266.94
2022-12-19T02:06:30.382Z,102264.98
2022-12-19T02:09:18.588Z,102258.79
2022-12-19T02:11:59.341Z,102255.36
2022-12-19T02:14:36.961Z,102252.46
2022-12-19T02:17:21.139Z,102248.36
2022-12-19T02:20:11.168Z,102241.35
2022-12-19T02:23:46.443Z,102234.36
2022-12-19T02:26:21.351Z,102222.48
2022-12-19T02:29:17.934Z,102222.56
2022-12-19T02:32:06.571Z,102221.70
2022-12-19T02:34:56.819Z,102218.08
2022-12-19T02:37:35.884Z,102213.77
2022-12-19T02:40:50.939Z,102213.45
2022-12-19T02:43:45.629Z,102212.67
2022-12-19T02:46:21.454Z,102209.85
2022-12-19T02:49:06.802Z,102208.14
2022-12-19T02:51:39.418Z,102203.95
2022-12-19T02:54:18.512Z,102206.74
2022-12-19T02:57:19.117Z,102209.14
2022-12-19T03:00:17.212Z,102205.05
2022-12-19T03:03:00.771Z,102202.37
2022-12-19T03:06:23.736Z,102199.13
2022-12-19T03:09:34.591Z,102196.70
2022-12-19T03:12:36.548Z,102199.02
2022-12-19T03:15:18.458Z,102188.30
2022-12-19T03:18:10.105Z,102176.48
2022-12-19T03:21:11.855Z,102172.22
2022-12-19T03:23:54.981Z,102161.02
2022-12-19T03:27:37.535Z,102159.17
2022-12-19T03:30:15.240Z,102158.04
2022-12-19T03:32:53.961Z,102158.44
2022-12-19T03:35:45.486Z,102157.93
2022-12-19T03:38:22.683Z,102149.67
2022-12-19T03:44:29.085Z,102141.54
2022-12-19T03:47:50.433Z,102133.92
2022-12-19T03:50:28.560Z,102125.93
2022-12-19T03:53:35.296Z,102126.23
2022-12-19T03:56:39.828Z,102123.31
2022-12-19T03:59:39.264Z,102124.51
2022-12-19T04:02:16.259Z,102115.78
2022-12-19T04:05:03.409Z,102114.25
2022-12-19T04:07:41.882Z,102115.15
2022-12-19T04:10:24.309Z,102117.56
2022-12-19T04:13:16.278Z,102122.01
2022-12-19T04:16:13.372Z,102125.31
2022-12-19T04:18:54.201Z,102120.00
2022-12-19T04:21:38.368Z,102109.80
2022-12-19T04:24:22.016Z,102108.58
2022-12-19T04:26:59.491Z,102110.46
2022-12-19T04:29:36.969Z,102110.85
2022-12-19T04:32:10.966Z,102113.93
2022-12-19T04:34:42.986Z,102111.02
2022-12-19T04:37:20.492Z,102101.76
2022-12-19T04:39:51.746Z,102103.82
2022-12-19T04:42:27.628Z,102105.39
2022-12-19T04:44:57.725Z,102104.98
2022-12-19T04:47:27.261Z,102105.35
2022-12-19T04:49:56.903Z,102103.94
2022-12-19T04:52:26.477Z,102095.66
2022-12-19T04:55:03.503Z,102094.56
2022-12-19T04:57:42.238Z,102087.47
2022-12-19T05:00:15.980Z,102085.30
2022-12-19T05:02:46.038Z,102083.42
2022-12-19T05:05:24.508Z,102076.44
2022-12-19T05:07:55.608Z,102073.73
2022-12-19T05:10:26.947Z,102066.20
2022-12-19T05:12:57.927Z,102060.05
2022-12-19T05:15:40.519Z,102058.52
2022-12-19T05:18:11.096Z,102052.40
2022-12-19T05:20:40.600Z,102047.28
2022-12-19T05:23:16.312Z,102051.44
2022-12-19T05:25:53.993Z,102052.33
2022-12-19T05:28:26.717Z,102049.98
2022-12-19T05:31:05.973Z,102048.67
2022-12-19T05:33:38.890Z,102046.24
2022-12-19T05:36:11.762Z,102040.65
2022-12-19T05:38:43.972Z,102038.23
2022-12-19T05:41:20.837Z,102038.18
2022-12-19T05:43:56.496Z,102034.79
2022-12-19T05:46:26.319Z,102029.58
2022-12-19T05:48:59.562Z,102025.69
2022-12-19T05:51:29.855Z,102026.95
2022-12-19T05:54:07.992Z,102030.42
2022-12-19T05:56:40.969Z,102030.27
2022-12-19T05:59:12.055Z,102030.66
2022-12-19T06:01:42.766Z,102028.59
2022-12-19T06:04:19.807Z,102025.29
2022-12-19T06:06:50.189Z,102019.44
2022-12-19T06:09:40.837Z,102020.37
2022-12-19T06:12:10.948Z,102016.00
2022-12-19T06:15:01.407Z,102017.89
2022-12-19T06:17:31.404Z,102012.88
2022-12-19T06:20:06.977Z,102013.41
2022-12-19T06:22:42.501Z,102016.60
2022-12-19T06:25:20.376Z,102015.83
2022-12-19T06:27:52.909Z,102017.61
2022-12-19T06:30:24.938Z,102025.00
2022-12-19T06:32:54.625Z,102025.23
2022-12-19T06:35:26.949Z,102026.19
2022-12-19T06:41:09.869Z,102026.05
2022-12-19T06:43:39.059Z,102026.05
2022-12-19T06:46:08.887Z,102029.33
2022-12-19T06:48:37.939Z,102032.45
2022-12-19T06:51:07.433Z,102033.30
2022-12-19T06:53:36.320Z,102032.95
2022-12-19T06:56:05.563Z,102029.50
2022-12-19T06:58:35.157Z,102029.37
2022-12-19T07:01:05.279Z,102031.24
2022-12-19T07:03:40.372Z,102034.42
2022-12-19T07:06:09.258Z,102034.80
2022-12-19T07:08:38.208Z,102028.30
2022-12-19T07:11:07.091Z,102024.96
2022-12-19T07:13:38.419Z,102021.24
2022-12-19T07:16:08.885Z,102025.02
2022-12-19T07:18:41.080Z,102029.06
2022-12-19T07:21:13.834Z,102026.98
2022-12-19T07:23:45.934Z,102026.64
2022-12-19T07:26:14.963Z,102027.38
2022-12-19T07:28:44.829Z,102029.70
2022-12-19T07:31:15.988Z,102031.64
2022-12-19T07:33:45.217Z,102022.66
2022-12-19T07:36:14.300Z,102013.60
2022-12-19T07:38:44.535Z,102009.06
2022-12-19T07:41:13.486Z,102002.35
2022-12-19T07:43:42.346Z,101997.77
2022-12-19T07:46:14.364Z,101994.21
2022-12-19T07:48:43.498Z,101975.97
2022-12-19T07:51:12.357Z,101961.80
2022-12-19T07:53:41.187Z,101959.67
2022-12-19T07:56:10.067Z,101959.80
2022-12-19T07:58:39.548Z,101957.54
2022-12-19T08:01:08.762Z,101955.66
2022-12-19T08:03:38.126Z,101949.49
2022-12-19T08:06:08.218Z,101957.30
2022-12-19T08:08:38.036Z,101962.74
2022-12-19T08:11:13.404Z,101967.10
2022-12-19T08:13:46.500Z,101974.30
2022-12-19T08:16:16.636Z,101966.35
2022-12-19T08:18:45.872Z,101962.86
2022-12-19T08:21:15.108Z,101958.30
2022-12-19T08:23:47.416Z,101957.45
2022-12-19T08:26:31.256Z,101955.16
2022-12-19T08:29:06.761Z,101955.75
2022-12-19T08:31:38.131Z,101948.06
2022-12-19T08:34:07.136Z,101934.96
2022-12-19T08:36:38.621Z,101929.07
2022-12-19T08:39:09.060Z,101921.20
2022-12-19T08:41:38.005Z,101920.40
2022-12-19T08:44:07.450Z,101920.05
2022-12-19T08:46:36.426Z,101919.59
2022-12-19T08:49:05.450Z,101922.57
2022-12-19T08:51:34.891Z,101929.36
2022-12-19T08:54:04.070Z,101926.44
2022-12-19T08:57:01.833Z,101912.10
2022-12-19T08:59:32.145Z,101899.73
2022-12-19T09:02:01.815Z,101895.79
2022-12-19T09:06:00.194Z,101899.38
2022-12-19T09:07:20.062Z,101898.42
2022-12-19T09:09:48.957Z,101895.82
2022-12-19T09:12:17.930Z,101885.81
2022-12-19T09:14:47.050Z,101878.89
2022-12-19T09:17:16.221Z,101877.16
2022-12-19T09:19:47.582Z,101870.28
2022-12-19T09:22:17.370Z,101863.77
2022-12-19T09:24:46.606Z,101862.18
2022-12-19T09:27:15.716Z,101863.63
2022-12-19T09:29:44.718Z,101860.79
2022-12-19T09:32:13.696Z,101852.27
2022-12-19T09:34:42.665Z,101846.66
2022-12-19T09:37:17.000Z,101844.05
2022-12-19T09:39:49.067Z,101840.24
2022-12-19T09:43:03.423Z,101838.57
2022-12-19T09:45:48.975Z,101842.33
2022-12-19T09:48:24.697Z,101841.98
2022-12-19T09:50:56.975Z,101829.35
2022-12-19T09:54:07.112Z,101820.94
2022-12-19T09:56:45.908Z,101817.01
2022-12-19T09:59:49.969Z,101803.60
2022-12-19T10:02:54.411Z,101787.70
2022-12-19T10:07:09.302Z,101781.39
2022-12-19T10:10:11.536Z,101776.80
2022-12-19T10:12:45.129Z,101770.52
2022-12-19T10:15:15.628Z,101766.86
2022-12-19T10:17:56.805Z,101763.23
2022-12-19T10:20:37.082Z,101764.77
2022-12-19T10:23:48.408Z,101759.44
2022-12-19T10:26:29.816Z,101751.73
2022-12-19T10:29:18.951Z,101742.66
2022-12-19T10:32:04.419Z,101736.33
2022-12-19T10:34:44.672Z,101725.46
2022-12-19T10:37:43.826Z,101719.79
2022-12-19T10:40:32.219Z,101726.29
2022-12-19T10:43:28.676Z,101722.68
2022-12-19T10:46:17.078Z,101712.17
2022-12-19T10:48:52.710Z,101703.71
2022-12-19T10:51:31.977Z,101689.66
2022-12-19T10:54:01.604Z,101687.12
2022-12-19T10:56:37.442Z,101696.84
2022-12-19T10:59:17.927Z,101699.92
2022-12-19T11:01:54.171Z,101702.99
2022-12-19T11:04:34.593Z,101712.62
2022-12-19T11:07:03.752Z,101704.95
2022-12-19T11:09:56.372Z,101698.86
2022-12-19T11:14:57.699Z,101702.87
2022-12-19T11:20:39.186Z,101693.10
2022-12-19T11:29:27.285Z,101685.73
2022-12-19T11:29:41.737Z,101680.98
2022-12-19T11:29:42.410Z,101686.59
2022-12-19T11:30:49.022Z,101672.73
2022-12-19T11:33:20.501Z,101654.61
2022-12-19T11:35:58.909Z,101654.01
2022-12-19T11:38:54.255Z,101650.29
2022-12-19T11:41:39.098Z,101644.58
2022-12-19T11:44:28.941Z,101641.55
2022-12-19T11:47:41.454Z,101639.33
2022-12-19T11:50:31.185Z,101627.20
2022-12-19T11:53:19.293Z,101621.27
2022-12-19T11:56:01.526Z,101616.47
2022-12-19T11:58:30.568Z,101615.61
2022-12-19T12:01:12.752Z,101614.94
2022-12-19T12:04:03.799Z,101610.58
2022-12-19T12:06:44.261Z,101607.48
2022-12-19T12:13:04.137Z,101603.68
2022-12-19T12:20:11.265Z,101603.77
2022-12-19T12:28:38.957Z,101598.49
2022-12-19T12:31:22.735Z,101592.48
2022-12-19T12:31:43.274Z,101591.48
2022-12-19T12:31:52.736Z,101592.42
2022-12-19T12:32:05.066Z,101592.34
2022-12-19T12:35:21.480Z,101589.45
2022-12-19T12:39:33.630Z,101588.98
2022-12-19T12:42:18.367Z,101582.17
2022-12-19T12:44:50.789Z,101574.64
2022-12-19T12:47:29.070Z,101577.03
2022-12-19T12:50:04.457Z,101578.69
2022-12-19T12:53:02.646Z,101567.32
2022-12-19T12:55:37.441Z,101563.23
2022-12-19T12:58:47.134Z,101563.45
2022-12-19T13:01:28.908Z,101555.70
2022-12-19T13:04:17.952Z,101551.91
2022-12-19T13:06:50.280Z,101555.46
2022-12-19T13:09:27.031Z,101552.58
2022-12-19T13:12:44.526Z,101547.75
2022-12-19T13:15:27.621Z,101539.78
2022-12-19T13:17:56.575Z,101541.39
2022-12-19T13:20:27.622Z,101538.23
2022-12-19T13:23:19.457Z,101542.23
2022-12-19T13:25:54.055Z,101537.42
2022-12-19T13:28:23.113Z,101531.58
2022-12-19T13:31:19.879Z,101538.84
2022-12-19T13:33:55.828Z,101539.68
2022-12-19T13:39:47.802Z,101534.97
2022-12-19T13:40:08.815Z,101524.52
2022-12-19T13:43:25.577Z,101511.52
2022-12-19T13:46:03.322Z,101504.52
2022-12-19T13:48:32.547Z,101498.39
2022-12-19T13:51:10.713Z,101487.51
2022-12-19T13:53:42.937Z,101476.95
2022-12-19T13:56:13.036Z,101476.82
2022-12-19T13:58:51.662Z,101471.86
2022-12-19T14:01:30.833Z,101468.44
2022-12-19T14:04:09.484Z,101470.84
2022-12-19T14:06:47.550Z,101465.21
2022-12-19T14:11:30.476Z,101463.73
2022-12-19T14:13:57.508Z,101454.30
2022-12-19T14:15:52.231Z,101461.66
2022-12-19T14:18:42.688Z,101462.08
2022-12-19T14:22:03.652Z,101462.42
2022-12-19T14:24:17.897Z,101459.66
2022-12-19T14:28:17.073Z,101460.33
2022-12-19T14:30:27.465Z,101464.20
2022-12-19T14:33:45.424Z,101466.91
2022-12-19T14:36:09.840Z,101468.25
2022-12-19T14:39:22.751Z,101472.17
2022-12-19T14:41:48.580Z,101471.65
2022-12-19T14:52:34.427Z,101469.48
2022-12-19T14:54:18.173Z,101466.29
2022-12-19T14:54:33.974Z,101463.36
2022-12-19T14:54:46.758Z,101459.69
2022-12-19T14:59:43.469Z,101463.04
2022-12-19T15:02:33.039Z,101462.31
2022-12-19T15:05:16.997Z,101461.27
2022-12-19T15:07:54.325Z,101459.73
2022-12-19T15:11:03.944Z,101461.34
2022-12-19T15:14:55.229Z,101458.46
2022-12-19T15:16:31.139Z,101452.98
2022-12-19T15:19:03.108Z,101446.45
2022-12-19T15:21:32.392Z,101439.98
2022-12-19T15:24:01.325Z,101435.23
2022-12-19T15:26:35.490Z,101429.27
2022-12-19T15:29:14.128Z,101423.11
2022-12-19T15:31:47.201Z,101416.39
2022-12-19T15:34:46.654Z,101414.49
2022-12-19T15:37:16.604Z,101415.83
2022-12-19T15:39:48.500Z,101407.44
2022-12-19T15:42:27.298Z,101412.77
2022-12-19T15:44:58.099Z,101411.77
2022-12-19T15:47:35.642Z,101409.07
2022-12-19T15:50:26.266Z,101413.32
2022-12-19T15:52:59.146Z,101411.10
2022-12-19T15:55:31.481Z,101404.08
2022-12-19T15:58:03.759Z,101394.00
2022-12-19T16:00:36.491Z,101389.92
2022-12-19T16:03:23.586Z,101387.14
2022-12-19T16:05:56.348Z,101381.15
2022-12-19T16:08:26.332Z,101377.94
2022-12-19T16:11:01.832Z,101377.30
2022-12-19T16:13:35.260Z,101377.21
2022-12-19T16:16:16.448Z,101376.23
2022-12-19T16:18:47.628Z,101374.05
2022-12-19T16:21:33.682Z,101370.82
2022-12-19T16:24:03.345Z,101368.63
2022-12-19T16:26:37.640Z,101364.17
2022-12-19T16:29:21.018Z,101368.74
2022-12-19T16:31:50.211Z,101361.37
2022-12-19T16:34:23.589Z,101358.36
2022-12-19T16:36:52.652Z,101354.48
2022-12-19T16:39:21.686Z,101347.70
2022-12-19T16:41:51.105Z,101351.77
2022-12-19T16:44:23.892Z,101349.25
2022-12-19T16:46:52.907Z,101346.88
2022-12-19T16:49:23.051Z,101343.64
2022-12-19T16:51:52.259Z,101340.36
2022-12-19T16:54:21.174Z,101332.84
2022-12-19T16:56:56.311Z,101327.63
2022-12-19T16:59:34.526Z,101329.40
2022-12-19T17:02:50.934Z,101338.86
2022-12-19T17:05:24.556Z,101337.67
2022-12-19T17:07:54.225Z,101339.89
2022-12-19T17:10:30.565Z,101345.89
2022-12-19T17:13:02.299Z,101344.92
2022-12-19T17:15:38.869Z,101341.21
2022-12-19T17:18:23.034Z,101335.77
2022-12-19T17:20:51.964Z,101335.81
2022-12-19T17:23:25.428Z,101337.41
2022-12-19T17:25:59.811Z,101338.23
2022-12-19T17:28:30.172Z,101336.48
2022-12-19T17:31:04.140Z,101337.73
2022-12-19T17:33:36.774Z,101344.64
2022-12-19T17:36:07.666Z,101343.30
2022-12-19T17:38:36.994Z,101338.98
2022-12-19T17:41:06.189Z,101339.33
2022-12-19T17:43:34.981Z,101338.49
2022-12-19T17:46:04.437Z,101339.56
2022-12-19T17:48:33.839Z,101340.25
2022-12-19T17:51:03.506Z,101342.08
2022-12-19T17:53:32.405Z,101338.63
2022-12-19T17:56:01.319Z,101336.73
2022-12-19T17:58:30.275Z,101335.57
2022-12-19T18:01:00.963Z,101329.75
2022-12-19T18:03:30.559Z,101327.55
2022-12-19T18:05:59.630Z,101323.02
2022-12-19T18:08:32.717Z,101320.70
2022-12-19T18:11:04.287Z,101322.17
2022-12-19T18:13:33.677Z,101319.68
2022-12-19T18:16:03.989Z,101317.52
2022-12-19T18:18:36.693Z,101311.58
2022-12-19T18:21:06.078Z,101300.11
2022-12-19T18:23:35.176Z,101296.85
2022-12-19T18:26:04.429Z,101297.89
2022-12-19T18:28:34.045Z,101303.06
2022-12-19T18:31:23.535Z,101307.52
2022-12-19T18:33:54.819Z,101309.77
2022-12-19T18:36:29.292Z,101299.05
2022-12-19T18:38:58.180Z,101294.80
2022-12-19T18:41:27.342Z,101291.44
2022-12-19T18:43:56.329Z,101283.10
2022-12-19T18:46:29.859Z,101279.16
2022-12-19T18:48:58.966Z,101279.80
2022-12-19T18:51:29.620Z,101273.96
2022-12-19T18:53:58.811Z,101267.94
2022-12-19T18:56:27.848Z,101264.16
2022-12-19T18:58:59.328Z,101263.84
2022-12-19T19:01:29.354Z,101267.42
2022-12-19T19:03:59.683Z,101267.27
2022-12-19T19:06:35.757Z,101262.71
2022-12-19T19:09:17.368Z,101258.13
2022-12-19T19:12:06.174Z,101253.50
2022-12-19T19:14:35.123Z,101254.52
2022-12-19T19:17:06.459Z,101253.92
2022-12-19T19:19:35.909Z,101248.39
2022-12-19T19:22:07.608Z,101243.17
2022-12-19T19:24:36.955Z,101241.79
2022-12-19T19:27:19.037Z,101241.09
2022-12-19T19:29:48.299Z,101241.60
2022-12-19T19:32:18.488Z,101242.48
2022-12-19T19:34:51.766Z,101240.07
2022-12-19T19:37:23.255Z,101236.77
2022-12-19T19:39:52.913Z,101235.98
2022-12-19T19:42:22.013Z,101230.10
2022-12-19T19:44:51.086Z,101229.29
2022-12-19T19:47:26.802Z,101234.98
2022-12-19T19:49:57.876Z,101240.48
2022-12-19T19:52:28.438Z,101239.15
2022-12-19T19:54:57.889Z,101235.72
2022-12-19T19:57:26.932Z,101235.07
2022-12-19T19:59:55.931Z,101232.20
2022-12-19T20:02:25.047Z,101229.48
2022-12-19T20:04:54.510Z,101228.48
2022-12-19T20:07:23.384Z,101221.48
2022-12-19T20:09:53.220Z,101219.10
2022-12-19T20:12:25.316Z,101217.20
2022-12-19T20:14:54.649Z,101217.59
2022-12-19T20:17:24.193Z,101216.45
2022-12-19T20:19:53.195Z,101214.95
2022-12-19T20:22:25.860Z,101210.70
2022-12-19T20:24:55.210Z,101206.46
2022-12-19T20:27:25.927Z,101199.95
2022-12-19T20:30:00.001Z,101200.50
2022-12-19T20:32:29.950Z,101205.96
2022-12-19T20:34:59.492Z,101209.41
2022-12-19T20:37:28.557Z,101209.41
2022-12-19T20:39:58.320Z,101206.63
2022-12-19T20:42:27.523Z,101202.16
2022-12-19T20:44:57.642Z,101199.29
2022-12-19T20:47:28.651Z,101197.82
2022-12-19T20:49:59.697Z,101197.84
2022-12-19T20:52:29.240Z,101198.15
2022-12-19T20:55:01.047Z,101196.93
2022-12-19T20:57:30.836Z,101195.70
2022-12-19T20:59:59.909Z,101196.19
2022-12-19T21:02:52.604Z,101199.08
2022-12-19T21:05:20.824Z,101196.64
2022-12-19T21:07:49.813Z,101198.40
2022-12-19T21:10:18.705Z,101196.15
2022-12-19T21:12:48.375Z,101193.04
2022-12-19T21:15:17.967Z,101188.75
2022-12-19T21:17:47.604Z,101187.91
2022-12-19T21:20:16.836Z,101182.91
2022-12-19T21:22:46.959Z,101177.39
2022-12-19T21:25:23.446Z,101175.14
2022-12-19T21:27:55.307Z,101172.60
2022-12-19T21:30:25.220Z,101173.10
2022-12-19T21:32:56.888Z,101171.04
2022-12-19T21:35:26.132Z,101165.35
2022-12-19T21:37:55.089Z,101166.53
2022-12-19T21:40:24.072Z,101164.99
2022-12-19T21:42:53.087Z,101161.86
2022-12-19T21:45:22.073Z,101162.87
2022-12-19T21:47:51.046Z,101165.56
2022-12-19T21:50:20.576Z,101167.42
2022-12-19T21:52:54.342Z,101161.27
2022-12-19T21:55:25.452Z,101160.90
2022-12-19T21:57:57.353Z,101162.08
2022-12-19T22:00:26.317Z,101162.55
2022-12-19T22:03:15.152Z,101163.23
2022-12-19T22:05:49.996Z,101164.30
2022-12-19T22:08:23.224Z,101165.54
2022-12-19T22:10:54.570Z,101160.90
2022-12-19T22:13:23.999Z,101155.05
2022-12-19T22:15:59.198Z,101150.75
2022-12-19T22:18:28.416Z,101145.57
2022-12-19T22:21:02.717Z,101138.87
2022-12-19T22:23:32.959Z,101138.36
2022-12-19T22:26:18.289Z,101137.00
2022-12-19T22:28:52.050Z,101133.42
2022-12-19T22:31:33.421Z,101127.94
2022-12-19T22:34:06.979Z,101126.73
2022-12-19T22:36:39.251Z,101129.10
2022-12-19T22:39:17.977Z,101126.85
2022-12-19T22:41:48.428Z,101129.13
2022-12-19T22:44:26.768Z,101124.70
2022-12-19T22:46:56.040Z,101119.89
2022-12-19T22:49:25.124Z,101119.05
2022-12-19T22:51:54.080Z,101120.96
2022-12-19T22:54:23.283Z,101121.48
2022-12-19T22:56:52.722Z,101118.23
2022-12-19T22:59:29.418Z,101114.96
2022-12-19T23:01:58.722Z,101119.59
2022-12-19T23:04:28.035Z,101124.95
2022-12-19T23:06:57.111Z,101121.55
2022-12-19T23:09:26.325Z,101121.24
2022-12-19T23:11:55.539Z,101118.33
2022-12-19T23:14:24.399Z,101113.04
2022-12-19T23:16:53.409Z,101109.30
2022-12-19T23:19:22.483Z,101104.68
2022-12-19T23:21:51.581Z,101099.21
2022-12-19T23:24:22.968Z,101101.13
2022-12-19T23:26:52.073Z,101098.23
2022-12-19T23:29:21.562Z,101095.16
2022-12-19T23:31:50.629Z,101094.48
2022-12-19T23:34:23.417Z,101093.14
2022-12-19T23:37:13.023Z,101091.92
2022-12-19T23:39:42.650Z,101085.45
2022-12-19T23:42:12.369Z,101082.39
2022-12-19T23:44:41.440Z,101081.19
2022-12-19T23:47:13.134Z,101075.55
2022-12-19T23:49:42.489Z,101072.84
2022-12-19T23:52:11.696Z,101068.05
2022-12-19T23:54:40.781Z,101066.23
2022-12-19T23:57:09.903Z,101070.04
2022-12-19T23:59:38.810Z,101068.52
